sensor_id;sensor_type;location;lat;lon;timestamp;P1;durP1;ratioP1;P2;durP2;ratioP2
37305;SDS011;23193;42.656;21.170;2024-03-07T00:00:58;62.55;;;37.22;;
37305;SDS011;23193;42.656;21.170;2024-03-07T00:03:26;82.55;;;42.20;;
37305;SDS011;23193;42.656;21.170;2024-03-07T00:05:54;80.00;;;42.03;;
37305;SDS011;23193;42.656;21.170;2024-03-07T00:08:22;76.53;;;43.90;;
37305;SDS011;23193;42.656;21.170;2024-03-07T00:10:49;77.88;;;44.05;;
37305;SDS011;23193;42.656;21.170;2024-03-07T00:13:16;72.28;;;42.92;;
37305;SDS011;23193;42.656;21.170;2024-03-07T00:15:43;67.75;;;40.70;;
37305;SDS011;23193;42.656;21.170;2024-03-07T00:18:10;74.88;;;41.88;;
37305;SDS011;23193;42.656;21.170;2024-03-07T00:20:38;63.75;;;38.10;;
37305;SDS011;23193;42.656;21.170;2024-03-07T00:23:06;54.88;;;31.75;;
37305;SDS011;23193;42.656;21.170;2024-03-07T00:25:33;36.67;;;20.65;;
37305;SDS011;23193;42.656;21.170;2024-03-07T00:28:00;19.10;;;10.15;;
37305;SDS011;23193;42.656;21.170;2024-03-07T00:30:30;8.05;;;5.03;;
37305;SDS011;23193;42.656;21.170;2024-03-07T00:32:57;4.07;;;2.75;;
37305;SDS011;23193;42.656;21.170;2024-03-07T00:35:25;2.72;;;2.08;;
37305;SDS011;23193;42.656;21.170;2024-03-07T00:37:52;2.85;;;1.55;;
37305;SDS011;23193;42.656;21.170;2024-03-07T00:40:19;8.95;;;4.78;;
37305;SDS011;23193;42.656;21.170;2024-03-07T00:42:46;4.15;;;2.70;;
37305;SDS011;23193;42.656;21.170;2024-03-07T00:45:14;7.68;;;4.03;;
37305;SDS011;23193;42.656;21.170;2024-03-07T00:47:41;2.15;;;1.73;;
37305;SDS011;23193;42.656;21.170;2024-03-07T00:50:09;3.92;;;2.17;;
37305;SDS011;23193;42.656;21.170;2024-03-07T00:52:38;3.83;;;1.73;;
37305;SDS011;23193;42.656;21.170;2024-03-07T00:55:06;2.45;;;1.45;;
37305;SDS011;23193;42.656;21.170;2024-03-07T00:57:35;4.30;;;2.92;;
37305;SDS011;23193;42.656;21.170;2024-03-07T01:00:02;3.90;;;2.88;;
37305;SDS011;23193;42.656;21.170;2024-03-07T01:02:30;3.03;;;1.55;;
37305;SDS011;23193;42.656;21.170;2024-03-07T01:04:57;4.18;;;3.10;;
37305;SDS011;23193;42.656;21.170;2024-03-07T01:07:25;2.60;;;1.80;;
37305;SDS011;23193;42.656;21.170;2024-03-07T01:09:54;2.35;;;1.70;;
37305;SDS011;23193;42.656;21.170;2024-03-07T01:12:21;5.93;;;3.03;;
37305;SDS011;23193;42.656;21.170;2024-03-07T01:14:51;4.80;;;1.85;;
37305;SDS011;23193;42.656;21.170;2024-03-07T01:17:18;3.33;;;1.80;;
37305;SDS011;23193;42.656;21.170;2024-03-07T01:19:45;4.20;;;2.05;;
37305;SDS011;23193;42.656;21.170;2024-03-07T01:22:12;3.78;;;2.05;;
37305;SDS011;23193;42.656;21.170;2024-03-07T01:24:39;5.85;;;2.47;;
37305;SDS011;23193;42.656;21.170;2024-03-07T01:27:06;3.63;;;2.20;;
37305;SDS011;23193;42.656;21.170;2024-03-07T01:29:34;3.78;;;1.65;;
37305;SDS011;23193;42.656;21.170;2024-03-07T01:32:01;3.40;;;1.67;;
37305;SDS011;23193;42.656;21.170;2024-03-07T01:34:29;58.88;;;26.25;;
37305;SDS011;23193;42.656;21.170;2024-03-07T01:36:57;5.78;;;4.88;;
37305;SDS011;23193;42.656;21.170;2024-03-07T01:39:24;3.63;;;1.92;;
37305;SDS011;23193;42.656;21.170;2024-03-07T01:41:51;2.28;;;1.45;;
37305;SDS011;23193;42.656;21.170;2024-03-07T01:44:19;10.63;;;7.10;;
37305;SDS011;23193;42.656;21.170;2024-03-07T01:46:46;5.18;;;1.75;;
37305;SDS011;23193;42.656;21.170;2024-03-07T01:49:16;2.00;;;1.50;;
37305;SDS011;23193;42.656;21.170;2024-03-07T01:51:43;1.85;;;1.50;;
37305;SDS011;23193;42.656;21.170;2024-03-07T01:54:11;2.30;;;1.38;;
37305;SDS011;23193;42.656;21.170;2024-03-07T01:56:38;1.88;;;1.00;;
37305;SDS011;23193;42.656;21.170;2024-03-07T01:59:06;2.63;;;1.20;;
37305;SDS011;23193;42.656;21.170;2024-03-07T02:01:34;1.92;;;1.27;;
37305;SDS011;23193;42.656;21.170;2024-03-07T02:04:03;2.08;;;1.25;;
37305;SDS011;23193;42.656;21.170;2024-03-07T02:06:31;3.72;;;1.50;;
37305;SDS011;23193;42.656;21.170;2024-03-07T02:09:00;1.65;;;1.27;;
37305;SDS011;23193;42.656;21.170;2024-03-07T02:11:28;3.92;;;1.20;;
37305;SDS011;23193;42.656;21.170;2024-03-07T02:13:55;2.65;;;1.17;;
37305;SDS011;23193;42.656;21.170;2024-03-07T02:16:22;1.17;;;0.90;;
37305;SDS011;23193;42.656;21.170;2024-03-07T02:18:51;1.92;;;1.35;;
37305;SDS011;23193;42.656;21.170;2024-03-07T02:21:18;2.90;;;1.15;;
37305;SDS011;23193;42.656;21.170;2024-03-07T02:23:46;2.55;;;1.33;;
37305;SDS011;23193;42.656;21.170;2024-03-07T02:26:13;2.83;;;0.80;;
37305;SDS011;23193;42.656;21.170;2024-03-07T02:28:40;5.63;;;1.92;;
37305;SDS011;23193;42.656;21.170;2024-03-07T02:31:07;1.45;;;1.00;;
37305;SDS011;23193;42.656;21.170;2024-03-07T02:33:34;2.28;;;1.40;;
37305;SDS011;23193;42.656;21.170;2024-03-07T02:36:01;1.48;;;0.68;;
37305;SDS011;23193;42.656;21.170;2024-03-07T02:38:28;2.50;;;1.17;;
37305;SDS011;23193;42.656;21.170;2024-03-07T02:40:55;1.08;;;0.70;;
37305;SDS011;23193;42.656;21.170;2024-03-07T02:43:23;1.48;;;0.88;;
37305;SDS011;23193;42.656;21.170;2024-03-07T02:45:50;2.08;;;0.80;;
37305;SDS011;23193;42.656;21.170;2024-03-07T02:48:18;2.50;;;1.10;;
37305;SDS011;23193;42.656;21.170;2024-03-07T02:50:45;2.22;;;1.15;;
37305;SDS011;23193;42.656;21.170;2024-03-07T02:53:12;1.35;;;0.90;;
37305;SDS011;23193;42.656;21.170;2024-03-07T02:55:40;1.15;;;1.00;;
37305;SDS011;23193;42.656;21.170;2024-03-07T02:58:08;1.00;;;0.82;;
37305;SDS011;23193;42.656;21.170;2024-03-07T03:00:35;2.03;;;1.10;;
37305;SDS011;23193;42.656;21.170;2024-03-07T03:03:03;2.13;;;1.08;;
37305;SDS011;23193;42.656;21.170;2024-03-07T03:05:30;2.67;;;1.00;;
37305;SDS011;23193;42.656;21.170;2024-03-07T03:07:57;2.00;;;0.90;;
37305;SDS011;23193;42.656;21.170;2024-03-07T03:10:25;3.28;;;2.17;;
37305;SDS011;23193;42.656;21.170;2024-03-07T03:13:00;6.70;;;3.10;;
37305;SDS011;23193;42.656;21.170;2024-03-07T03:15:28;3.30;;;2.15;;
37305;SDS011;23193;42.656;21.170;2024-03-07T03:17:57;3.10;;;1.67;;
37305;SDS011;23193;42.656;21.170;2024-03-07T03:20:28;24.73;;;12.23;;
37305;SDS011;23193;42.656;21.170;2024-03-07T03:23:03;25.40;;;12.45;;
37305;SDS011;23193;42.656;21.170;2024-03-07T03:25:45;27.50;;;13.07;;
37305;SDS011;23193;42.656;21.170;2024-03-07T03:28:15;23.35;;;11.50;;
37305;SDS011;23193;42.656;21.170;2024-03-07T03:30:43;12.45;;;6.78;;
37305;SDS011;23193;42.656;21.170;2024-03-07T03:33:11;8.40;;;4.63;;
37305;SDS011;23193;42.656;21.170;2024-03-07T03:35:39;4.05;;;2.42;;
37305;SDS011;23193;42.656;21.170;2024-03-07T03:38:06;3.78;;;1.38;;
37305;SDS011;23193;42.656;21.170;2024-03-07T03:40:34;2.63;;;1.42;;
37305;SDS011;23193;42.656;21.170;2024-03-07T03:43:01;4.07;;;2.22;;
37305;SDS011;23193;42.656;21.170;2024-03-07T03:45:30;2.85;;;2.00;;
37305;SDS011;23193;42.656;21.170;2024-03-07T03:47:59;3.80;;;1.50;;
37305;SDS011;23193;42.656;21.170;2024-03-07T03:50:26;1.90;;;1.65;;
37305;SDS011;23193;42.656;21.170;2024-03-07T03:52:55;2.42;;;1.45;;
37305;SDS011;23193;42.656;21.170;2024-03-07T03:55:25;2.72;;;1.50;;
37305;SDS011;23193;42.656;21.170;2024-03-07T03:57:52;1.25;;;1.15;;
37305;SDS011;23193;42.656;21.170;2024-03-07T04:00:21;2.90;;;1.38;;
37305;SDS011;23193;42.656;21.170;2024-03-07T04:02:50;4.72;;;1.35;;
37305;SDS011;23193;42.656;21.170;2024-03-07T04:05:19;2.17;;;1.20;;
37305;SDS011;23193;42.656;21.170;2024-03-07T04:07:47;3.35;;;1.13;;
37305;SDS011;23193;42.656;21.170;2024-03-07T04:10:14;3.65;;;1.40;;
37305;SDS011;23193;42.656;21.170;2024-03-07T04:12:42;2.65;;;1.60;;
37305;SDS011;23193;42.656;21.170;2024-03-07T04:15:10;2.97;;;1.83;;
37305;SDS011;23193;42.656;21.170;2024-03-07T04:17:38;3.55;;;1.60;;
37305;SDS011;23193;42.656;21.170;2024-03-07T04:20:05;2.97;;;2.00;;
37305;SDS011;23193;42.656;21.170;2024-03-07T04:22:34;6.22;;;2.88;;
37305;SDS011;23193;42.656;21.170;2024-03-07T04:25:01;7.63;;;3.22;;
37305;SDS011;23193;42.656;21.170;2024-03-07T04:27:28;6.43;;;3.58;;
37305;SDS011;23193;42.656;21.170;2024-03-07T04:29:55;13.00;;;4.47;;
37305;SDS011;23193;42.656;21.170;2024-03-07T04:32:23;11.55;;;5.20;;
37305;SDS011;23193;42.656;21.170;2024-03-07T04:34:50;8.57;;;4.40;;
37305;SDS011;23193;42.656;21.170;2024-03-07T04:37:18;7.70;;;4.28;;
37305;SDS011;23193;42.656;21.170;2024-03-07T04:39:45;8.25;;;4.32;;
37305;SDS011;23193;42.656;21.170;2024-03-07T04:42:12;8.77;;;4.35;;
37305;SDS011;23193;42.656;21.170;2024-03-07T04:44:40;8.52;;;4.43;;
37305;SDS011;23193;42.656;21.170;2024-03-07T04:47:07;9.35;;;4.43;;
37305;SDS011;23193;42.656;21.170;2024-03-07T04:49:34;7.55;;;4.07;;
37305;SDS011;23193;42.656;21.170;2024-03-07T04:52:02;9.85;;;4.35;;
37305;SDS011;23193;42.656;21.170;2024-03-07T04:54:30;10.48;;;4.95;;
37305;SDS011;23193;42.656;21.170;2024-03-07T04:56:59;11.30;;;6.05;;
37305;SDS011;23193;42.656;21.170;2024-03-07T04:59:26;14.40;;;6.50;;
37305;SDS011;23193;42.656;21.170;2024-03-07T05:01:54;15.95;;;6.72;;
37305;SDS011;23193;42.656;21.170;2024-03-07T05:04:21;12.60;;;6.75;;
37305;SDS011;23193;42.656;21.170;2024-03-07T05:06:50;14.73;;;6.50;;
37305;SDS011;23193;42.656;21.170;2024-03-07T05:09:17;15.20;;;6.35;;
37305;SDS011;23193;42.656;21.170;2024-03-07T05:11:54;17.75;;;7.03;;
37305;SDS011;23193;42.656;21.170;2024-03-07T05:14:21;10.73;;;4.20;;
37305;SDS011;23193;42.656;21.170;2024-03-07T05:16:49;13.10;;;5.72;;
37305;SDS011;23193;42.656;21.170;2024-03-07T05:19:32;14.65;;;6.95;;
37305;SDS011;23193;42.656;21.170;2024-03-07T05:22:00;9.82;;;4.65;;
37305;SDS011;23193;42.656;21.170;2024-03-07T05:24:27;10.40;;;4.82;;
37305;SDS011;23193;42.656;21.170;2024-03-07T05:26:54;10.88;;;5.40;;
37305;SDS011;23193;42.656;21.170;2024-03-07T05:29:22;11.20;;;3.88;;
37305;SDS011;23193;42.656;21.170;2024-03-07T05:31:49;6.03;;;2.70;;
37305;SDS011;23193;42.656;21.170;2024-03-07T05:34:17;10.57;;;3.60;;
37305;SDS011;23193;42.656;21.170;2024-03-07T05:36:50;8.35;;;3.38;;
37305;SDS011;23193;42.656;21.170;2024-03-07T05:39:17;10.10;;;2.83;;
37305;SDS011;23193;42.656;21.170;2024-03-07T05:41:44;6.72;;;3.45;;
37305;SDS011;23193;42.656;21.170;2024-03-07T05:44:12;11.63;;;4.00;;
37305;SDS011;23193;42.656;21.170;2024-03-07T05:46:41;12.80;;;3.85;;
37305;SDS011;23193;42.656;21.170;2024-03-07T05:49:13;10.20;;;4.80;;
37305;SDS011;23193;42.656;21.170;2024-03-07T05:51:41;14.57;;;4.32;;
37305;SDS011;23193;42.656;21.170;2024-03-07T05:54:17;9.93;;;4.35;;
37305;SDS011;23193;42.656;21.170;2024-03-07T05:56:44;10.75;;;4.43;;
37305;SDS011;23193;42.656;21.170;2024-03-07T05:59:13;8.35;;;4.28;;
37305;SDS011;23193;42.656;21.170;2024-03-07T06:01:40;11.82;;;5.05;;
37305;SDS011;23193;42.656;21.170;2024-03-07T06:04:09;9.27;;;4.18;;
37305;SDS011;23193;42.656;21.170;2024-03-07T06:06:37;11.88;;;5.00;;
37305;SDS011;23193;42.656;21.170;2024-03-07T06:09:05;9.38;;;4.72;;
37305;SDS011;23193;42.656;21.170;2024-03-07T06:11:36;12.05;;;5.13;;
37305;SDS011;23193;42.656;21.170;2024-03-07T06:14:07;15.52;;;6.90;;
37305;SDS011;23193;42.656;21.170;2024-03-07T06:16:37;14.32;;;7.72;;
37305;SDS011;23193;42.656;21.170;2024-03-07T06:19:06;23.48;;;10.65;;
37305;SDS011;23193;42.656;21.170;2024-03-07T06:21:37;30.98;;;15.15;;
37305;SDS011;23193;42.656;21.170;2024-03-07T06:24:29;39.75;;;17.65;;
37305;SDS011;23193;42.656;21.170;2024-03-07T06:26:58;30.98;;;15.10;;
37305;SDS011;23193;42.656;21.170;2024-03-07T06:29:31;30.70;;;13.77;;
37305;SDS011;23193;42.656;21.170;2024-03-07T06:31:58;28.25;;;13.20;;
37305;SDS011;23193;42.656;21.170;2024-03-07T06:34:25;22.70;;;10.45;;
37305;SDS011;23193;42.656;21.170;2024-03-07T06:36:54;16.50;;;7.07;;
37305;SDS011;23193;42.656;21.170;2024-03-07T06:39:22;19.08;;;9.50;;
37305;SDS011;23193;42.656;21.170;2024-03-07T06:41:49;19.75;;;10.13;;
37305;SDS011;23193;42.656;21.170;2024-03-07T06:44:16;21.10;;;8.73;;
37305;SDS011;23193;42.656;21.170;2024-03-07T06:46:46;15.27;;;4.93;;
37305;SDS011;23193;42.656;21.170;2024-03-07T06:49:13;10.55;;;4.00;;
37305;SDS011;23193;42.656;21.170;2024-03-07T06:51:40;19.42;;;4.38;;
37305;SDS011;23193;42.656;21.170;2024-03-07T06:54:07;13.82;;;5.88;;
37305;SDS011;23193;42.656;21.170;2024-03-07T06:56:34;10.75;;;5.10;;
37305;SDS011;23193;42.656;21.170;2024-03-07T06:59:01;10.63;;;4.20;;
37305;SDS011;23193;42.656;21.170;2024-03-07T07:04:00;10.50;;;3.30;;
37305;SDS011;23193;42.656;21.170;2024-03-07T07:06:30;17.77;;;4.25;;
37305;SDS011;23193;42.656;21.170;2024-03-07T07:08:58;9.18;;;3.65;;
37305;SDS011;23193;42.656;21.170;2024-03-07T07:11:26;13.48;;;4.78;;
37305;SDS011;23193;42.656;21.170;2024-03-07T07:14:01;14.52;;;4.45;;
37305;SDS011;23193;42.656;21.170;2024-03-07T07:16:29;16.90;;;3.50;;
37305;SDS011;23193;42.656;21.170;2024-03-07T07:18:58;17.30;;;3.28;;
37305;SDS011;23193;42.656;21.170;2024-03-07T07:21:25;17.63;;;3.40;;
37305;SDS011;23193;42.656;21.170;2024-03-07T07:23:52;15.50;;;3.35;;
37305;SDS011;23193;42.656;21.170;2024-03-07T07:26:19;10.35;;;3.05;;
37305;SDS011;23193;42.656;21.170;2024-03-07T07:28:46;17.00;;;3.20;;
37305;SDS011;23193;42.656;21.170;2024-03-07T07:31:13;20.65;;;4.90;;
37305;SDS011;23193;42.656;21.170;2024-03-07T07:33:40;21.70;;;4.70;;
37305;SDS011;23193;42.656;21.170;2024-03-07T07:36:08;8.88;;;2.70;;
37305;SDS011;23193;42.656;21.170;2024-03-07T07:38:37;18.67;;;3.85;;
37305;SDS011;23193;42.656;21.170;2024-03-07T07:41:04;11.63;;;3.08;;
37305;SDS011;23193;42.656;21.170;2024-03-07T07:43:33;16.95;;;2.83;;
37305;SDS011;23193;42.656;21.170;2024-03-07T07:46:09;18.02;;;3.40;;
37305;SDS011;23193;42.656;21.170;2024-03-07T07:48:36;20.48;;;3.50;;
37305;SDS011;23193;42.656;21.170;2024-03-07T07:51:04;24.90;;;3.75;;
37305;SDS011;23193;42.656;21.170;2024-03-07T07:53:32;14.15;;;3.35;;
37305;SDS011;23193;42.656;21.170;2024-03-07T07:55:59;22.10;;;8.45;;
37305;SDS011;23193;42.656;21.170;2024-03-07T07:58:26;18.60;;;5.32;;
37305;SDS011;23193;42.656;21.170;2024-03-07T08:00:54;20.10;;;4.00;;
37305;SDS011;23193;42.656;21.170;2024-03-07T08:03:22;21.38;;;3.78;;
37305;SDS011;23193;42.656;21.170;2024-03-07T08:05:50;24.80;;;3.47;;
37305;SDS011;23193;42.656;21.170;2024-03-07T08:08:17;10.85;;;2.63;;
37305;SDS011;23193;42.656;21.170;2024-03-07T08:10:46;12.63;;;3.70;;
37305;SDS011;23193;42.656;21.170;2024-03-07T08:13:15;24.15;;;3.53;;
37305;SDS011;23193;42.656;21.170;2024-03-07T08:15:42;14.27;;;2.50;;
37305;SDS011;23193;42.656;21.170;2024-03-07T08:18:09;12.35;;;3.05;;
37305;SDS011;23193;42.656;21.170;2024-03-07T08:20:41;12.50;;;2.40;;
37305;SDS011;23193;42.656;21.170;2024-03-07T08:23:10;11.68;;;3.15;;
37305;SDS011;23193;42.656;21.170;2024-03-07T08:25:38;12.88;;;3.67;;
37305;SDS011;23193;42.656;21.170;2024-03-07T08:28:07;14.27;;;3.72;;
37305;SDS011;23193;42.656;21.170;2024-03-07T08:30:35;5.65;;;2.00;;
37305;SDS011;23193;42.656;21.170;2024-03-07T08:33:02;6.55;;;2.60;;
37305;SDS011;23193;42.656;21.170;2024-03-07T08:35:33;17.88;;;2.95;;
37305;SDS011;23193;42.656;21.170;2024-03-07T08:38:01;14.23;;;2.08;;
37305;SDS011;23193;42.656;21.170;2024-03-07T08:40:28;12.27;;;2.08;;
37305;SDS011;23193;42.656;21.170;2024-03-07T08:43:00;8.75;;;1.50;;
37305;SDS011;23193;42.656;21.170;2024-03-07T08:45:28;7.78;;;2.70;;
37305;SDS011;23193;42.656;21.170;2024-03-07T08:47:56;15.68;;;4.13;;
37305;SDS011;23193;42.656;21.170;2024-03-07T08:50:26;14.73;;;4.10;;
37305;SDS011;23193;42.656;21.170;2024-03-07T08:52:54;18.50;;;4.85;;
37305;SDS011;23193;42.656;21.170;2024-03-07T08:55:24;12.73;;;3.00;;
37305;SDS011;23193;42.656;21.170;2024-03-07T08:57:52;10.75;;;2.30;;
37305;SDS011;23193;42.656;21.170;2024-03-07T09:00:20;18.40;;;4.90;;
37305;SDS011;23193;42.656;21.170;2024-03-07T09:02:54;15.05;;;4.72;;
37305;SDS011;23193;42.656;21.170;2024-03-07T09:05:26;14.25;;;4.13;;
37305;SDS011;23193;42.656;21.170;2024-03-07T09:07:54;17.95;;;5.47;;
37305;SDS011;23193;42.656;21.170;2024-03-07T09:10:21;16.13;;;5.15;;
37305;SDS011;23193;42.656;21.170;2024-03-07T09:12:51;18.83;;;4.45;;
37305;SDS011;23193;42.656;21.170;2024-03-07T09:15:19;17.33;;;3.72;;
37305;SDS011;23193;42.656;21.170;2024-03-07T09:17:49;8.27;;;1.80;;
37305;SDS011;23193;42.656;21.170;2024-03-07T09:20:16;14.82;;;5.00;;
37305;SDS011;23193;42.656;21.170;2024-03-07T09:22:46;16.08;;;4.32;;
37305;SDS011;23193;42.656;21.170;2024-03-07T09:25:17;22.30;;;6.85;;
37305;SDS011;23193;42.656;21.170;2024-03-07T09:27:46;19.77;;;5.50;;
37305;SDS011;23193;42.656;21.170;2024-03-07T09:30:13;11.77;;;4.88;;
37305;SDS011;23193;42.656;21.170;2024-03-07T09:32:47;18.27;;;6.05;;
37305;SDS011;23193;42.656;21.170;2024-03-07T09:35:16;15.57;;;3.03;;
37305;SDS011;23193;42.656;21.170;2024-03-07T09:37:44;27.48;;;10.88;;
37305;SDS011;23193;42.656;21.170;2024-03-07T09:40:12;11.10;;;3.92;;
37305;SDS011;23193;42.656;21.170;2024-03-07T09:42:45;12.38;;;3.10;;
37305;SDS011;23193;42.656;21.170;2024-03-07T09:45:16;15.38;;;2.53;;
37305;SDS011;23193;42.656;21.170;2024-03-07T09:50:11;6.45;;;2.00;;
37305;SDS011;23193;42.656;21.170;2024-03-07T09:52:38;3.30;;;1.42;;
37305;SDS011;23193;42.656;21.170;2024-03-07T09:55:05;8.68;;;1.80;;
37305;SDS011;23193;42.656;21.170;2024-03-07T09:57:34;7.00;;;2.40;;
37305;SDS011;23193;42.656;21.170;2024-03-07T10:00:02;6.57;;;2.08;;
37305;SDS011;23193;42.656;21.170;2024-03-07T10:02:38;7.65;;;2.15;;
37305;SDS011;23193;42.656;21.170;2024-03-07T10:05:07;20.17;;;3.90;;
37305;SDS011;23193;42.656;21.170;2024-03-07T10:07:40;9.57;;;2.03;;
37305;SDS011;23193;42.656;21.170;2024-03-07T10:10:06;9.20;;;2.20;;
37305;SDS011;23193;42.656;21.170;2024-03-07T10:12:39;6.50;;;1.80;;
37305;SDS011;23193;42.656;21.170;2024-03-07T10:15:06;3.50;;;1.50;;
37305;SDS011;23193;42.656;21.170;2024-03-07T10:17:37;10.95;;;2.33;;
37305;SDS011;23193;42.656;21.170;2024-03-07T10:20:04;2.90;;;1.10;;
37305;SDS011;23193;42.656;21.170;2024-03-07T10:22:37;4.60;;;1.40;;
37305;SDS011;23193;42.656;21.170;2024-03-07T10:25:04;4.38;;;1.67;;
37305;SDS011;23193;42.656;21.170;2024-03-07T10:27:31;6.40;;;1.60;;
37305;SDS011;23193;42.656;21.170;2024-03-07T10:29:58;13.65;;;4.03;;
37305;SDS011;23193;42.656;21.170;2024-03-07T10:32:26;7.13;;;2.22;;
37305;SDS011;23193;42.656;21.170;2024-03-07T10:34:53;9.85;;;3.80;;
37305;SDS011;23193;42.656;21.170;2024-03-07T10:37:21;11.88;;;3.05;;
37305;SDS011;23193;42.656;21.170;2024-03-07T10:39:48;8.77;;;3.53;;
37305;SDS011;23193;42.656;21.170;2024-03-07T10:42:16;7.82;;;2.30;;
37305;SDS011;23193;42.656;21.170;2024-03-07T10:44:45;12.80;;;4.30;;
37305;SDS011;23193;42.656;21.170;2024-03-07T10:47:19;10.70;;;4.10;;
37305;SDS011;23193;42.656;21.170;2024-03-07T10:52:31;12.68;;;6.25;;
37305;SDS011;23193;42.656;21.170;2024-03-07T10:55:13;18.15;;;7.50;;
37305;SDS011;23193;42.656;21.170;2024-03-07T10:57:50;40.42;;;18.15;;
37305;SDS011;23193;42.656;21.170;2024-03-07T11:00:26;25.08;;;6.60;;
37305;SDS011;23193;42.656;21.170;2024-03-07T11:02:57;28.90;;;10.23;;
37305;SDS011;23193;42.656;21.170;2024-03-07T11:05:28;8.95;;;3.30;;
37305;SDS011;23193;42.656;21.170;2024-03-07T11:07:59;15.70;;;7.00;;
37305;SDS011;23193;42.656;21.170;2024-03-07T11:10:30;54.85;;;25.08;;
37305;SDS011;23193;42.656;21.170;2024-03-07T11:12:57;14.35;;;5.15;;
37305;SDS011;23193;42.656;21.170;2024-03-07T11:15:25;14.00;;;4.38;;
37305;SDS011;23193;42.656;21.170;2024-03-07T11:17:54;14.85;;;6.40;;
37305;SDS011;23193;42.656;21.170;2024-03-07T11:20:22;10.57;;;2.38;;
37305;SDS011;23193;42.656;21.170;2024-03-07T11:22:50;10.82;;;2.95;;
37305;SDS011;23193;42.656;21.170;2024-03-07T11:25:18;26.23;;;12.55;;
37305;SDS011;23193;42.656;21.170;2024-03-07T11:27:56;16.08;;;8.25;;
37305;SDS011;23193;42.656;21.170;2024-03-07T11:30:23;9.65;;;3.20;;
37305;SDS011;23193;42.656;21.170;2024-03-07T11:32:51;4.80;;;2.13;;
37305;SDS011;23193;42.656;21.170;2024-03-07T11:35:20;11.70;;;4.10;;
37305;SDS011;23193;42.656;21.170;2024-03-07T11:37:58;13.63;;;4.88;;
37305;SDS011;23193;42.656;21.170;2024-03-07T11:42:53;14.15;;;4.38;;
37305;SDS011;23193;42.656;21.170;2024-03-07T11:45:21;11.70;;;2.95;;
37305;SDS011;23193;42.656;21.170;2024-03-07T11:48:00;10.00;;;2.58;;
37305;SDS011;23193;42.656;21.170;2024-03-07T11:50:31;11.05;;;3.38;;
37305;SDS011;23193;42.656;21.170;2024-03-07T11:53:02;10.85;;;3.78;;
37305;SDS011;23193;42.656;21.170;2024-03-07T11:55:36;21.48;;;7.50;;
37305;SDS011;23193;42.656;21.170;2024-03-07T11:58:12;23.63;;;7.25;;
37305;SDS011;23193;42.656;21.170;2024-03-07T12:00:40;15.45;;;3.22;;
37305;SDS011;23193;42.656;21.170;2024-03-07T12:03:12;35.53;;;7.75;;
37305;SDS011;23193;42.656;21.170;2024-03-07T12:05:40;28.65;;;10.98;;
37305;SDS011;23193;42.656;21.170;2024-03-07T12:10:39;8.50;;;3.97;;
37305;SDS011;23193;42.656;21.170;2024-03-07T12:14:10;25.10;;;6.82;;
37305;SDS011;23193;42.656;21.170;2024-03-07T12:16:38;15.98;;;3.72;;
37305;SDS011;23193;42.656;21.170;2024-03-07T12:19:05;9.55;;;2.90;;
37305;SDS011;23193;42.656;21.170;2024-03-07T12:21:33;10.70;;;4.13;;
37305;SDS011;23193;42.656;21.170;2024-03-07T12:24:11;10.30;;;3.22;;
37305;SDS011;23193;42.656;21.170;2024-03-07T12:26:39;12.43;;;2.80;;
37305;SDS011;23193;42.656;21.170;2024-03-07T12:29:10;11.15;;;3.85;;
37305;SDS011;23193;42.656;21.170;2024-03-07T12:31:38;10.75;;;4.22;;
37305;SDS011;23193;42.656;21.170;2024-03-07T12:34:06;16.70;;;6.03;;
37305;SDS011;23193;42.656;21.170;2024-03-07T12:36:35;30.13;;;12.05;;
37305;SDS011;23193;42.656;21.170;2024-03-07T12:39:21;28.48;;;11.15;;
37305;SDS011;23193;42.656;21.170;2024-03-07T12:41:52;24.58;;;8.68;;
37305;SDS011;23193;42.656;21.170;2024-03-07T12:44:23;19.55;;;7.28;;
37305;SDS011;23193;42.656;21.170;2024-03-07T12:46:53;9.85;;;4.22;;
37305;SDS011;23193;42.656;21.170;2024-03-07T12:49:22;8.85;;;3.65;;
37305;SDS011;23193;42.656;21.170;2024-03-07T12:51:54;11.25;;;3.10;;
37305;SDS011;23193;42.656;21.170;2024-03-07T12:54:20;8.38;;;3.08;;
37305;SDS011;23193;42.656;21.170;2024-03-07T12:56:49;9.38;;;1.70;;
37305;SDS011;23193;42.656;21.170;2024-03-07T12:59:18;9.82;;;2.42;;
37305;SDS011;23193;42.656;21.170;2024-03-07T13:01:47;8.73;;;2.50;;
37305;SDS011;23193;42.656;21.170;2024-03-07T13:04:14;8.40;;;2.28;;
37305;SDS011;23193;42.656;21.170;2024-03-07T13:06:42;13.18;;;2.25;;
37305;SDS011;23193;42.656;21.170;2024-03-07T13:09:14;7.93;;;2.60;;
37305;SDS011;23193;42.656;21.170;2024-03-07T13:11:41;5.60;;;2.40;;
37305;SDS011;23193;42.656;21.170;2024-03-07T13:14:09;7.32;;;2.70;;
37305;SDS011;23193;42.656;21.170;2024-03-07T13:16:36;10.55;;;1.92;;
37305;SDS011;23193;42.656;21.170;2024-03-07T13:19:03;9.75;;;2.67;;
37305;SDS011;23193;42.656;21.170;2024-03-07T13:21:32;27.95;;;13.25;;
37305;SDS011;23193;42.656;21.170;2024-03-07T13:24:01;8.05;;;2.92;;
37305;SDS011;23193;42.656;21.170;2024-03-07T13:26:28;10.35;;;3.08;;
37305;SDS011;23193;42.656;21.170;2024-03-07T13:28:58;12.43;;;4.85;;
37305;SDS011;23193;42.656;21.170;2024-03-07T13:31:28;14.45;;;7.57;;
37305;SDS011;23193;42.656;21.170;2024-03-07T13:33:56;13.15;;;4.57;;
37305;SDS011;23193;42.656;21.170;2024-03-07T13:36:23;15.57;;;7.38;;
37305;SDS011;23193;42.656;21.170;2024-03-07T13:38:51;18.52;;;5.32;;
37305;SDS011;23193;42.656;21.170;2024-03-07T13:41:19;14.32;;;5.25;;
37305;SDS011;23193;42.656;21.170;2024-03-07T13:43:47;14.13;;;5.55;;
37305;SDS011;23193;42.656;21.170;2024-03-07T13:46:14;9.88;;;4.03;;
37305;SDS011;23193;42.656;21.170;2024-03-07T13:48:44;13.05;;;4.40;;
37305;SDS011;23193;42.656;21.170;2024-03-07T13:51:12;24.10;;;7.25;;
37305;SDS011;23193;42.656;21.170;2024-03-07T13:53:42;17.02;;;5.97;;
37305;SDS011;23193;42.656;21.170;2024-03-07T13:59:17;16.80;;;7.97;;
37305;SDS011;23193;42.656;21.170;2024-03-07T14:04:28;8.77;;;3.63;;
37305;SDS011;23193;42.656;21.170;2024-03-07T14:07:11;16.20;;;7.13;;
37305;SDS011;23193;42.656;21.170;2024-03-07T14:09:45;7.63;;;3.45;;
37305;SDS011;23193;42.656;21.170;2024-03-07T14:13:03;10.40;;;2.78;;
37305;SDS011;23193;42.656;21.170;2024-03-07T14:26:00;12.13;;;3.58;;
37305;SDS011;23193;42.656;21.170;2024-03-07T14:31:01;14.13;;;3.97;;
37305;SDS011;23193;42.656;21.170;2024-03-07T14:33:47;7.93;;;2.28;;
37305;SDS011;23193;42.656;21.170;2024-03-07T14:36:17;6.85;;;2.55;;
37305;SDS011;23193;42.656;21.170;2024-03-07T14:38:53;4.15;;;1.58;;
37305;SDS011;23193;42.656;21.170;2024-03-07T14:41:37;27.20;;;10.80;;
37305;SDS011;23193;42.656;21.170;2024-03-07T14:44:06;15.20;;;5.40;;
37305;SDS011;23193;42.656;21.170;2024-03-07T14:46:34;18.85;;;6.80;;
37305;SDS011;23193;42.656;21.170;2024-03-07T14:49:01;9.07;;;2.63;;
37305;SDS011;23193;42.656;21.170;2024-03-07T14:51:29;7.63;;;3.30;;
37305;SDS011;23193;42.656;21.170;2024-03-07T14:54:02;15.75;;;6.13;;
37305;SDS011;23193;42.656;21.170;2024-03-07T14:56:30;15.05;;;6.03;;
37305;SDS011;23193;42.656;21.170;2024-03-07T14:58:57;21.88;;;2.63;;
37305;SDS011;23193;42.656;21.170;2024-03-07T15:01:24;6.82;;;2.80;;
37305;SDS011;23193;42.656;21.170;2024-03-07T15:03:54;19.15;;;5.78;;
37305;SDS011;23193;42.656;21.170;2024-03-07T15:06:22;13.93;;;3.60;;
37305;SDS011;23193;42.656;21.170;2024-03-07T15:08:49;14.43;;;3.63;;